sensor_id;sensor_type;location;lat;lon;timestamp;P1;durP1;ratioP1;P2;durP2;ratioP2
70866;SDS011;58487;53.474;49.470;2023-10-31T00:01:07;10.07;;;4.47;;
70866;SDS011;58487;53.474;49.470;2023-10-31T00:03:33;10.85;;;4.57;;
70866;SDS011;58487;53.474;49.470;2023-10-31T00:05:59;8.35;;;4.18;;
70866;SDS011;58487;53.474;49.470;2023-10-31T00:08:25;8.63;;;3.90;;
70866;SDS011;58487;53.474;49.470;2023-10-31T00:10:51;9.43;;;4.83;;
70866;SDS011;58487;53.474;49.470;2023-10-31T00:13:17;9.38;;;4.35;;
70866;SDS011;58487;53.474;49.470;2023-10-31T00:15:43;10.20;;;4.93;;
70866;SDS011;58487;53.474;49.470;2023-10-31T00:18:09;11.63;;;4.57;;
70866;SDS011;58487;53.474;49.470;2023-10-31T00:20:35;11.30;;;5.63;;
70866;SDS011;58487;53.474;49.470;2023-10-31T00:23:01;11.63;;;4.55;;
70866;SDS011;58487;53.474;49.470;2023-10-31T00:25:27;8.98;;;4.28;;
70866;SDS011;58487;53.474;49.470;2023-10-31T00:27:53;8.80;;;4.38;;
70866;SDS011;58487;53.474;49.470;2023-10-31T00:30:19;13.57;;;4.90;;
70866;SDS011;58487;53.474;49.470;2023-10-31T00:32:44;11.35;;;4.53;;
70866;SDS011;58487;53.474;49.470;2023-10-31T00:35:10;11.93;;;6.13;;
70866;SDS011;58487;53.474;49.470;2023-10-31T00:37:38;9.60;;;4.50;;
70866;SDS011;58487;53.474;49.470;2023-10-31T00:40:06;11.27;;;5.40;;
70866;SDS011;58487;53.474;49.470;2023-10-31T00:42:32;11.95;;;6.40;;
70866;SDS011;58487;53.474;49.470;2023-10-31T00:44:59;8.90;;;4.43;;
70866;SDS011;58487;53.474;49.470;2023-10-31T00:47:25;11.57;;;5.47;;
70866;SDS011;58487;53.474;49.470;2023-10-31T00:49:51;12.05;;;4.15;;
70866;SDS011;58487;53.474;49.470;2023-10-31T00:52:18;9.97;;;4.33;;
70866;SDS011;58487;53.474;49.470;2023-10-31T00:54:44;8.60;;;4.57;;
70866;SDS011;58487;53.474;49.470;2023-10-31T00:57:10;10.25;;;4.57;;
70866;SDS011;58487;53.474;49.470;2023-10-31T00:59:36;9.90;;;4.50;;
70866;SDS011;58487;53.474;49.470;2023-10-31T01:02:04;10.20;;;4.90;;
70866;SDS011;58487;53.474;49.470;2023-10-31T01:04:30;7.75;;;3.92;;
70866;SDS011;58487;53.474;49.470;2023-10-31T01:06:56;9.90;;;5.32;;
70866;SDS011;58487;53.474;49.470;2023-10-31T01:09:22;7.38;;;3.80;;
70866;SDS011;58487;53.474;49.470;2023-10-31T01:11:48;7.35;;;3.70;;
70866;SDS011;58487;53.474;49.470;2023-10-31T01:14:14;8.40;;;4.17;;
70866;SDS011;58487;53.474;49.470;2023-10-31T01:16:41;8.30;;;4.07;;
70866;SDS011;58487;53.474;49.470;2023-10-31T01:19:07;8.38;;;3.53;;
70866;SDS011;58487;53.474;49.470;2023-10-31T01:21:33;9.02;;;3.92;;
70866;SDS011;58487;53.474;49.470;2023-10-31T01:23:59;7.93;;;3.47;;
70866;SDS011;58487;53.474;49.470;2023-10-31T01:26:25;9.55;;;4.40;;
70866;SDS011;58487;53.474;49.470;2023-10-31T01:28:51;9.77;;;4.97;;
70866;SDS011;58487;53.474;49.470;2023-10-31T01:31:17;9.48;;;5.00;;
70866;SDS011;58487;53.474;49.470;2023-10-31T01:33:45;8.98;;;4.15;;
70866;SDS011;58487;53.474;49.470;2023-10-31T01:36:11;7.73;;;4.30;;
70866;SDS011;58487;53.474;49.470;2023-10-31T01:38:38;8.88;;;4.13;;
70866;SDS011;58487;53.474;49.470;2023-10-31T01:41:04;10.27;;;4.10;;
70866;SDS011;58487;53.474;49.470;2023-10-31T01:43:37;7.05;;;3.53;;
70866;SDS011;58487;53.474;49.470;2023-10-31T01:46:03;8.98;;;4.45;;
70866;SDS011;58487;53.474;49.470;2023-10-31T01:48:31;7.70;;;3.40;;
70866;SDS011;58487;53.474;49.470;2023-10-31T01:50:58;9.80;;;4.30;;
70866;SDS011;58487;53.474;49.470;2023-10-31T01:53:26;9.02;;;4.20;;
70866;SDS011;58487;53.474;49.470;2023-10-31T01:55:54;7.70;;;3.25;;
70866;SDS011;58487;53.474;49.470;2023-10-31T01:58:23;7.35;;;3.45;;
70866;SDS011;58487;53.474;49.470;2023-10-31T02:00:54;8.87;;;5.23;;
70866;SDS011;58487;53.474;49.470;2023-10-31T02:03:21;7.88;;;3.78;;
70866;SDS011;58487;53.474;49.470;2023-10-31T02:05:47;6.20;;;3.00;;
70866;SDS011;58487;53.474;49.470;2023-10-31T02:08:13;8.13;;;3.55;;
70866;SDS011;58487;53.474;49.470;2023-10-31T02:10:40;6.35;;;3.17;;
70866;SDS011;58487;53.474;49.470;2023-10-31T02:13:12;7.77;;;3.03;;
70866;SDS011;58487;53.474;49.470;2023-10-31T02:15:39;7.22;;;3.50;;
70866;SDS011;58487;53.474;49.470;2023-10-31T02:18:06;6.97;;;3.22;;
70866;SDS011;58487;53.474;49.470;2023-10-31T02:20:33;7.93;;;4.05;;
70866;SDS011;58487;53.474;49.470;2023-10-31T02:23:00;6.87;;;3.83;;
70866;SDS011;58487;53.474;49.470;2023-10-31T02:25:26;6.72;;;3.25;;
70866;SDS011;58487;53.474;49.470;2023-10-31T02:27:52;6.85;;;3.42;;
70866;SDS011;58487;53.474;49.470;2023-10-31T02:30:18;8.85;;;4.20;;
70866;SDS011;58487;53.474;49.470;2023-10-31T02:32:44;9.40;;;4.80;;
70866;SDS011;58487;53.474;49.470;2023-10-31T02:35:10;7.93;;;4.00;;
70866;SDS011;58487;53.474;49.470;2023-10-31T02:37:36;8.32;;;4.15;;
70866;SDS011;58487;53.474;49.470;2023-10-31T02:40:02;8.00;;;3.38;;
70866;SDS011;58487;53.474;49.470;2023-10-31T02:42:29;10.98;;;5.05;;
70866;SDS011;58487;53.474;49.470;2023-10-31T02:44:56;7.90;;;4.18;;
70866;SDS011;58487;53.474;49.470;2023-10-31T02:47:22;8.30;;;3.33;;
70866;SDS011;58487;53.474;49.470;2023-10-31T02:49:48;8.50;;;3.60;;
70866;SDS011;58487;53.474;49.470;2023-10-31T02:52:14;6.88;;;3.38;;
70866;SDS011;58487;53.474;49.470;2023-10-31T02:54:40;8.98;;;3.75;;
70866;SDS011;58487;53.474;49.470;2023-10-31T02:57:05;8.50;;;4.10;;
70866;SDS011;58487;53.474;49.470;2023-10-31T02:59:31;7.00;;;3.42;;
70866;SDS011;58487;53.474;49.470;2023-10-31T03:01:57;5.82;;;2.60;;
70866;SDS011;58487;53.474;49.470;2023-10-31T03:04:23;6.90;;;2.30;;
70866;SDS011;58487;53.474;49.470;2023-10-31T03:06:49;5.93;;;2.95;;
70866;SDS011;58487;53.474;49.470;2023-10-31T03:09:15;7.00;;;3.10;;
70866;SDS011;58487;53.474;49.470;2023-10-31T03:11:41;7.30;;;3.28;;
70866;SDS011;58487;53.474;49.470;2023-10-31T03:14:07;8.20;;;3.42;;
70866;SDS011;58487;53.474;49.470;2023-10-31T03:16:34;6.43;;;3.30;;
70866;SDS011;58487;53.474;49.470;2023-10-31T03:19:00;6.73;;;3.20;;
70866;SDS011;58487;53.474;49.470;2023-10-31T03:21:26;7.40;;;3.00;;
70866;SDS011;58487;53.474;49.470;2023-10-31T03:23:52;6.75;;;3.20;;
70866;SDS011;58487;53.474;49.470;2023-10-31T03:26:19;6.97;;;3.72;;
70866;SDS011;58487;53.474;49.470;2023-10-31T03:28:45;6.57;;;2.88;;
70866;SDS011;58487;53.474;49.470;2023-10-31T03:31:12;8.73;;;3.70;;
70866;SDS011;58487;53.474;49.470;2023-10-31T03:33:38;5.75;;;2.92;;
70866;SDS011;58487;53.474;49.470;2023-10-31T03:36:04;6.88;;;3.42;;
70866;SDS011;58487;53.474;49.470;2023-10-31T03:38:31;6.78;;;2.80;;
70866;SDS011;58487;53.474;49.470;2023-10-31T03:40:57;6.88;;;3.72;;
70866;SDS011;58487;53.474;49.470;2023-10-31T03:43:23;8.07;;;3.27;;
70866;SDS011;58487;53.474;49.470;2023-10-31T03:45:49;5.13;;;2.33;;
70866;SDS011;58487;53.474;49.470;2023-10-31T03:48:15;6.82;;;3.45;;
70866;SDS011;58487;53.474;49.470;2023-10-31T03:50:42;7.18;;;3.45;;
70866;SDS011;58487;53.474;49.470;2023-10-31T03:53:08;7.93;;;3.10;;
70866;SDS011;58487;53.474;49.470;2023-10-31T03:55:35;6.90;;;3.37;;
70866;SDS011;58487;53.474;49.470;2023-10-31T03:58:01;6.78;;;3.15;;
70866;SDS011;58487;53.474;49.470;2023-10-31T04:00:27;5.50;;;2.88;;
70866;SDS011;58487;53.474;49.470;2023-10-31T04:02:53;5.18;;;2.78;;
70866;SDS011;58487;53.474;49.470;2023-10-31T04:05:18;6.83;;;2.70;;
70866;SDS011;58487;53.474;49.470;2023-10-31T04:07:46;6.35;;;3.03;;
70866;SDS011;58487;53.474;49.470;2023-10-31T04:10:12;6.15;;;2.83;;
70866;SDS011;58487;53.474;49.470;2023-10-31T04:12:38;5.53;;;2.90;;
70866;SDS011;58487;53.474;49.470;2023-10-31T04:15:05;7.15;;;4.07;;
70866;SDS011;58487;53.474;49.470;2023-10-31T04:17:31;5.97;;;3.13;;
70866;SDS011;58487;53.474;49.470;2023-10-31T04:19:57;6.05;;;3.03;;
70866;SDS011;58487;53.474;49.470;2023-10-31T04:22:24;5.32;;;3.08;;
70866;SDS011;58487;53.474;49.470;2023-10-31T04:24:50;6.47;;;3.28;;
70866;SDS011;58487;53.474;49.470;2023-10-31T04:27:16;7.45;;;3.17;;
70866;SDS011;58487;53.474;49.470;2023-10-31T04:29:43;5.97;;;2.60;;
70866;SDS011;58487;53.474;49.470;2023-10-31T04:32:09;7.82;;;2.97;;
70866;SDS011;58487;53.474;49.470;2023-10-31T04:34:35;6.20;;;2.95;;
70866;SDS011;58487;53.474;49.470;2023-10-31T04:37:01;5.40;;;2.72;;
70866;SDS011;58487;53.474;49.470;2023-10-31T04:39:28;7.63;;;2.72;;
70866;SDS011;58487;53.474;49.470;2023-10-31T04:41:54;7.17;;;3.13;;
70866;SDS011;58487;53.474;49.470;2023-10-31T04:44:20;6.00;;;2.72;;
70866;SDS011;58487;53.474;49.470;2023-10-31T04:46:46;5.72;;;2.63;;
70866;SDS011;58487;53.474;49.470;2023-10-31T04:49:12;5.75;;;2.55;;
70866;SDS011;58487;53.474;49.470;2023-10-31T04:51:38;6.30;;;3.10;;
70866;SDS011;58487;53.474;49.470;2023-10-31T04:54:04;6.03;;;2.83;;
70866;SDS011;58487;53.474;49.470;2023-10-31T04:56:30;7.47;;;3.35;;
70866;SDS011;58487;53.474;49.470;2023-10-31T04:58:56;5.45;;;2.50;;
70866;SDS011;58487;53.474;49.470;2023-10-31T05:01:22;6.65;;;3.05;;
70866;SDS011;58487;53.474;49.470;2023-10-31T05:03:49;7.50;;;3.20;;
70866;SDS011;58487;53.474;49.470;2023-10-31T05:06:22;6.03;;;2.88;;
70866;SDS011;58487;53.474;49.470;2023-10-31T05:08:49;6.82;;;3.10;;
70866;SDS011;58487;53.474;49.470;2023-10-31T05:11:18;9.20;;;3.08;;
70866;SDS011;58487;53.474;49.470;2023-10-31T05:13:44;5.93;;;2.83;;
70866;SDS011;58487;53.474;49.470;2023-10-31T05:16:11;8.13;;;2.87;;
70866;SDS011;58487;53.474;49.470;2023-10-31T05:18:37;8.02;;;3.50;;
70866;SDS011;58487;53.474;49.470;2023-10-31T05:21:06;5.50;;;3.08;;
70866;SDS011;58487;53.474;49.470;2023-10-31T05:23:32;7.75;;;3.15;;
70866;SDS011;58487;53.474;49.470;2023-10-31T05:25:58;10.77;;;3.20;;
70866;SDS011;58487;53.474;49.470;2023-10-31T05:28:24;6.87;;;3.53;;
70866;SDS011;58487;53.474;49.470;2023-10-31T05:30:50;5.60;;;2.65;;
70866;SDS011;58487;53.474;49.470;2023-10-31T05:33:16;5.85;;;3.10;;
70866;SDS011;58487;53.474;49.470;2023-10-31T05:35:42;6.00;;;2.83;;
70866;SDS011;58487;53.474;49.470;2023-10-31T05:38:08;6.07;;;3.00;;
70866;SDS011;58487;53.474;49.470;2023-10-31T05:40:34;6.15;;;2.60;;
70866;SDS011;58487;53.474;49.470;2023-10-31T05:43:03;6.40;;;2.95;;
70866;SDS011;58487;53.474;49.470;2023-10-31T05:45:29;5.75;;;2.80;;
70866;SDS011;58487;53.474;49.470;2023-10-31T05:47:56;7.32;;;2.85;;
70866;SDS011;58487;53.474;49.470;2023-10-31T05:50:22;7.70;;;2.53;;
70866;SDS011;58487;53.474;49.470;2023-10-31T05:52:48;7.47;;;3.08;;
70866;SDS011;58487;53.474;49.470;2023-10-31T05:55:14;7.75;;;3.25;;
70866;SDS011;58487;53.474;49.470;2023-10-31T05:57:41;8.15;;;2.90;;
70866;SDS011;58487;53.474;49.470;2023-10-31T06:00:07;5.65;;;2.78;;
70866;SDS011;58487;53.474;49.470;2023-10-31T06:02:34;5.53;;;2.83;;
70866;SDS011;58487;53.474;49.470;2023-10-31T06:05:00;6.28;;;2.85;;
70866;SDS011;58487;53.474;49.470;2023-10-31T06:07:26;8.05;;;2.70;;
70866;SDS011;58487;53.474;49.470;2023-10-31T06:09:52;8.48;;;3.05;;
70866;SDS011;58487;53.474;49.470;2023-10-31T06:12:18;5.97;;;3.00;;
70866;SDS011;58487;53.474;49.470;2023-10-31T06:14:44;5.87;;;2.77;;
70866;SDS011;58487;53.474;49.470;2023-10-31T06:17:10;6.18;;;2.72;;
70866;SDS011;58487;53.474;49.470;2023-10-31T06:19:36;7.80;;;3.53;;
70866;SDS011;58487;53.474;49.470;2023-10-31T06:22:03;6.57;;;3.10;;
70866;SDS011;58487;53.474;49.470;2023-10-31T06:24:29;10.98;;;3.42;;
70866;SDS011;58487;53.474;49.470;2023-10-31T06:26:55;7.50;;;3.37;;
70866;SDS011;58487;53.474;49.470;2023-10-31T06:29:21;7.95;;;4.32;;
70866;SDS011;58487;53.474;49.470;2023-10-31T06:31:47;9.57;;;3.83;;
70866;SDS011;58487;53.474;49.470;2023-10-31T06:34:13;7.93;;;3.80;;
70866;SDS011;58487;53.474;49.470;2023-10-31T06:36:39;10.63;;;4.00;;
70866;SDS011;58487;53.474;49.470;2023-10-31T06:39:10;8.33;;;4.33;;
70866;SDS011;58487;53.474;49.470;2023-10-31T06:41:54;7.80;;;3.70;;
70866;SDS011;58487;53.474;49.470;2023-10-31T06:44:21;8.63;;;3.97;;
70866;SDS011;58487;53.474;49.470;2023-10-31T06:46:47;7.95;;;3.83;;
70866;SDS011;58487;53.474;49.470;2023-10-31T06:49:13;12.90;;;4.15;;
70866;SDS011;58487;53.474;49.470;2023-10-31T06:51:39;10.27;;;4.63;;
70866;SDS011;58487;53.474;49.470;2023-10-31T06:54:05;12.13;;;4.47;;
70866;SDS011;58487;53.474;49.470;2023-10-31T06:56:31;8.20;;;4.00;;
70866;SDS011;58487;53.474;49.470;2023-10-31T06:58:57;10.38;;;4.57;;
70866;SDS011;58487;53.474;49.470;2023-10-31T07:01:32;10.60;;;4.70;;
70866;SDS011;58487;53.474;49.470;2023-10-31T07:03:58;10.05;;;4.03;;
70866;SDS011;58487;53.474;49.470;2023-10-31T07:06:27;10.32;;;4.88;;
70866;SDS011;58487;53.474;49.470;2023-10-31T07:08:53;14.45;;;4.25;;
70866;SDS011;58487;53.474;49.470;2023-10-31T07:11:19;8.93;;;4.13;;
70866;SDS011;58487;53.474;49.470;2023-10-31T07:13:45;8.30;;;3.87;;
70866;SDS011;58487;53.474;49.470;2023-10-31T07:16:11;7.88;;;3.10;;
70866;SDS011;58487;53.474;49.470;2023-10-31T07:18:37;9.02;;;4.28;;
70866;SDS011;58487;53.474;49.470;2023-10-31T07:21:03;8.40;;;3.85;;
70866;SDS011;58487;53.474;49.470;2023-10-31T07:23:30;9.07;;;4.68;;
70866;SDS011;58487;53.474;49.470;2023-10-31T07:25:56;8.10;;;3.23;;
70866;SDS011;58487;53.474;49.470;2023-10-31T07:28:22;9.88;;;4.32;;
70866;SDS011;58487;53.474;49.470;2023-10-31T07:30:48;8.60;;;3.92;;
70866;SDS011;58487;53.474;49.470;2023-10-31T07:33:15;11.02;;;4.57;;
70866;SDS011;58487;53.474;49.470;2023-10-31T07:35:41;7.80;;;2.97;;
70866;SDS011;58487;53.474;49.470;2023-10-31T07:38:07;7.63;;;3.33;;
70866;SDS011;58487;53.474;49.470;2023-10-31T07:40:33;8.80;;;3.58;;
70866;SDS011;58487;53.474;49.470;2023-10-31T07:42:59;6.88;;;3.35;;
70866;SDS011;58487;53.474;49.470;2023-10-31T07:45:25;6.97;;;3.50;;
70866;SDS011;58487;53.474;49.470;2023-10-31T07:47:51;9.10;;;3.28;;
70866;SDS011;58487;53.474;49.470;2023-10-31T07:50:17;5.82;;;3.03;;
70866;SDS011;58487;53.474;49.470;2023-10-31T07:52:43;5.95;;;2.55;;
70866;SDS011;58487;53.474;49.470;2023-10-31T07:55:11;6.17;;;3.07;;
70866;SDS011;58487;53.474;49.470;2023-10-31T07:57:37;6.68;;;2.60;;
70866;SDS011;58487;53.474;49.470;2023-10-31T08:00:03;8.27;;;3.05;;
70866;SDS011;58487;53.474;49.470;2023-10-31T08:02:30;6.97;;;3.15;;
70866;SDS011;58487;53.474;49.470;2023-10-31T08:04:56;7.53;;;3.20;;
70866;SDS011;58487;53.474;49.470;2023-10-31T08:07:22;6.85;;;3.00;;
70866;SDS011;58487;53.474;49.470;2023-10-31T08:09:49;9.05;;;3.45;;
70866;SDS011;58487;53.474;49.470;2023-10-31T08:12:14;9.25;;;3.58;;
70866;SDS011;58487;53.474;49.470;2023-10-31T08:14:40;9.00;;;4.00;;
70866;SDS011;58487;53.474;49.470;2023-10-31T08:17:07;10.05;;;3.53;;
70866;SDS011;58487;53.474;49.470;2023-10-31T08:19:34;5.45;;;2.72;;
70866;SDS011;58487;53.474;49.470;2023-10-31T08:22:00;11.80;;;3.55;;
70866;SDS011;58487;53.474;49.470;2023-10-31T08:24:26;9.00;;;3.03;;
70866;SDS011;58487;53.474;49.470;2023-10-31T08:26:52;6.60;;;3.25;;
70866;SDS011;58487;53.474;49.470;2023-10-31T08:29:18;8.73;;;4.03;;
70866;SDS011;58487;53.474;49.470;2023-10-31T08:31:44;7.43;;;3.78;;
70866;SDS011;58487;53.474;49.470;2023-10-31T08:34:10;8.50;;;4.07;;
70866;SDS011;58487;53.474;49.470;2023-10-31T08:36:36;7.60;;;3.63;;
70866;SDS011;58487;53.474;49.470;2023-10-31T08:39:02;8.27;;;2.85;;
70866;SDS011;58487;53.474;49.470;2023-10-31T08:41:29;8.18;;;3.95;;
70866;SDS011;58487;53.474;49.470;2023-10-31T08:43:55;20.37;;;8.37;;
70866;SDS011;58487;53.474;49.470;2023-10-31T08:46:21;10.10;;;5.68;;
70866;SDS011;58487;53.474;49.470;2023-10-31T08:48:47;9.65;;;4.80;;
70866;SDS011;58487;53.474;49.470;2023-10-31T08:51:13;14.57;;;5.05;;
70866;SDS011;58487;53.474;49.470;2023-10-31T08:53:39;9.77;;;4.50;;
70866;SDS011;58487;53.474;49.470;2023-10-31T08:56:05;8.90;;;5.10;;
70866;SDS011;58487;53.474;49.470;2023-10-31T08:58:31;8.52;;;4.47;;
70866;SDS011;58487;53.474;49.470;2023-10-31T09:00:57;10.02;;;4.82;;
70866;SDS011;58487;53.474;49.470;2023-10-31T09:03:23;10.65;;;5.20;;
70866;SDS011;58487;53.474;49.470;2023-10-31T09:05:50;9.23;;;5.37;;
70866;SDS011;58487;53.474;49.470;2023-10-31T09:08:16;9.07;;;4.65;;
70866;SDS011;58487;53.474;49.470;2023-10-31T09:10:42;10.82;;;5.13;;
70866;SDS011;58487;53.474;49.470;2023-10-31T09:13:11;10.82;;;5.88;;
70866;SDS011;58487;53.474;49.470;2023-10-31T09:15:37;8.23;;;3.45;;
70866;SDS011;58487;53.474;49.470;2023-10-31T09:18:04;10.93;;;5.23;;
70866;SDS011;58487;53.474;49.470;2023-10-31T09:20:30;9.45;;;4.90;;
70866;SDS011;58487;53.474;49.470;2023-10-31T09:22:56;11.85;;;5.63;;
70866;SDS011;58487;53.474;49.470;2023-10-31T09:25:22;9.13;;;5.28;;
70866;SDS011;58487;53.474;49.470;2023-10-31T09:27:49;10.73;;;5.10;;
70866;SDS011;58487;53.474;49.470;2023-10-31T09:30:15;10.10;;;4.90;;
70866;SDS011;58487;53.474;49.470;2023-10-31T09:32:41;8.82;;;4.85;;
70866;SDS011;58487;53.474;49.470;2023-10-31T09:35:07;14.40;;;7.00;;
70866;SDS011;58487;53.474;49.470;2023-10-31T09:37:33;9.05;;;5.10;;
70866;SDS011;58487;53.474;49.470;2023-10-31T09:40:00;13.17;;;4.70;;
70866;SDS011;58487;53.474;49.470;2023-10-31T09:42:28;8.73;;;4.65;;
70866;SDS011;58487;53.474;49.470;2023-10-31T09:44:54;8.20;;;4.65;;
70866;SDS011;58487;53.474;49.470;2023-10-31T09:47:20;10.23;;;5.35;;
70866;SDS011;58487;53.474;49.470;2023-10-31T09:49:47;8.77;;;5.15;;
70866;SDS011;58487;53.474;49.470;2023-10-31T09:52:13;8.60;;;4.87;;
70866;SDS011;58487;53.474;49.470;2023-10-31T09:54:39;8.65;;;3.83;;
70866;SDS011;58487;53.474;49.470;2023-10-31T09:57:08;9.35;;;4.93;;
70866;SDS011;58487;53.474;49.470;2023-10-31T09:59:34;7.63;;;3.63;;
70866;SDS011;58487;53.474;49.470;2023-10-31T10:02:00;7.57;;;3.97;;
70866;SDS011;58487;53.474;49.470;2023-10-31T10:04:26;9.20;;;5.10;;
70866;SDS011;58487;53.474;49.470;2023-10-31T10:07:00;9.30;;;4.85;;
70866;SDS011;58487;53.474;49.470;2023-10-31T10:09:27;9.02;;;4.20;;
70866;SDS011;58487;53.474;49.470;2023-10-31T10:11:53;8.73;;;4.80;;
70866;SDS011;58487;53.474;49.470;2023-10-31T10:14:22;10.05;;;4.38;;
70866;SDS011;58487;53.474;49.470;2023-10-31T10:16:49;10.17;;;4.47;;
70866;SDS011;58487;53.474;49.470;2023-10-31T10:19:19;9.30;;;4.40;;
70866;SDS011;58487;53.474;49.470;2023-10-31T10:21:57;8.27;;;4.70;;
70866;SDS011;58487;53.474;49.470;2023-10-31T10:24:24;9.13;;;4.15;;
70866;SDS011;58487;53.474;49.470;2023-10-31T10:26:51;10.75;;;5.82;;
70866;SDS011;58487;53.474;49.470;2023-10-31T10:29:17;13.10;;;7.40;;
70866;SDS011;58487;53.474;49.470;2023-10-31T10:31:43;10.00;;;5.70;;
70866;SDS011;58487;53.474;49.470;2023-10-31T10:34:16;9.35;;;4.60;;
70866;SDS011;58487;53.474;49.470;2023-10-31T10:36:43;8.20;;;4.25;;
70866;SDS011;58487;53.474;49.470;2023-10-31T10:39:13;7.78;;;4.38;;
70866;SDS011;58487;53.474;49.470;2023-10-31T10:41:54;10.53;;;5.10;;
70866;SDS011;58487;53.474;49.470;2023-10-31T10:44:30;9.18;;;6.13;;
70866;SDS011;58487;53.474;49.470;2023-10-31T10:46:58;8.32;;;5.22;;
70866;SDS011;58487;53.474;49.470;2023-10-31T10:49:35;9.05;;;5.70;;
70866;SDS011;58487;53.474;49.470;2023-10-31T10:52:14;7.43;;;4.22;;
70866;SDS011;58487;53.474;49.470;2023-10-31T10:54:53;6.17;;;3.97;;
70866;SDS011;58487;53.474;49.470;2023-10-31T11:00:04;8.85;;;5.45;;
70866;SDS011;58487;53.474;49.470;2023-10-31T11:02:35;7.90;;;4.68;;
70866;SDS011;58487;53.474;49.470;2023-10-31T11:05:05;6.90;;;3.65;;
70866;SDS011;58487;53.474;49.470;2023-10-31T11:07:32;9.07;;;4.63;;
70866;SDS011;58487;53.474;49.470;2023-10-31T11:10:00;6.40;;;4.05;;
70866;SDS011;58487;53.474;49.470;2023-10-31T11:12:31;7.57;;;3.50;;
70866;SDS011;58487;53.474;49.470;2023-10-31T11:15:01;8.00;;;4.50;;
70866;SDS011;58487;53.474;49.470;2023-10-31T11:17:31;6.90;;;4.20;;
70866;SDS011;58487;53.474;49.470;2023-10-31T11:20:03;7.83;;;4.20;;
70866;SDS011;58487;53.474;49.470;2023-10-31T11:22:37;6.93;;;4.03;;
70866;SDS011;58487;53.474;49.470;2023-10-31T11:25:07;7.43;;;3.70;;
70866;SDS011;58487;53.474;49.470;2023-10-31T11:27:34;8.45;;;4.25;;
70866;SDS011;58487;53.474;49.470;2023-10-31T11:30:19;6.90;;;3.60;;
70866;SDS011;58487;53.474;49.470;2023-10-31T11:32:57;6.80;;;3.90;;
70866;SDS011;58487;53.474;49.470;2023-10-31T11:35:24;5.70;;;3.60;;
70866;SDS011;58487;53.474;49.470;2023-10-31T11:38:04;8.13;;;3.70;;
70866;SDS011;58487;53.474;49.470;2023-10-31T11:40:34;8.30;;;3.90;;
70866;SDS011;58487;53.474;49.470;2023-10-31T11:43:23;7.68;;;4.40;;
70866;SDS011;58487;53.474;49.470;2023-10-31T11:45:51;7.57;;;4.20;;
70866;SDS011;58487;53.474;49.470;2023-10-31T11:48:17;8.35;;;3.80;;
70866;SDS011;58487;53.474;49.470;2023-10-31T11:51:10;6.93;;;3.65;;
70866;SDS011;58487;53.474;49.470;2023-10-31T11:53:38;6.38;;;4.03;;
70866;SDS011;58487;53.474;49.470;2023-10-31T11:56:04;8.63;;;4.30;;
70866;SDS011;58487;53.474;49.470;2023-10-31T11:58:31;7.73;;;4.33;;
70866;SDS011;58487;53.474;49.470;2023-10-31T12:01:01;6.88;;;3.97;;
70866;SDS011;58487;53.474;49.470;2023-10-31T12:03:36;7.72;;;4.10;;
70866;SDS011;58487;53.474;49.470;2023-10-31T12:06:03;7.78;;;4.30;;
70866;SDS011;58487;53.474;49.470;2023-10-31T12:08:31;7.55;;;4.18;;
70866;SDS011;58487;53.474;49.470;2023-10-31T12:13:35;7.13;;;4.07;;
70866;SDS011;58487;53.474;49.470;2023-10-31T12:16:03;6.32;;;3.80;;
70866;SDS011;58487;53.474;49.470;2023-10-31T12:18:30;7.78;;;4.50;;
70866;SDS011;58487;53.474;49.470;2023-10-31T12:20:57;7.78;;;3.85;;
70866;SDS011;58487;53.474;49.470;2023-10-31T12:23:23;8.53;;;4.30;;
70866;SDS011;58487;53.474;49.470;2023-10-31T12:25:49;7.40;;;3.92;;
70866;SDS011;58487;53.474;49.470;2023-10-31T12:28:20;7.65;;;4.20;;
70866;SDS011;58487;53.474;49.470;2023-10-31T12:30:48;6.80;;;4.05;;
70866;SDS011;58487;53.474;49.470;2023-10-31T12:33:15;7.83;;;3.37;;
70866;SDS011;58487;53.474;49.470;2023-10-31T12:35:42;6.13;;;3.20;;
70866;SDS011;58487;53.474;49.470;2023-10-31T12:38:12;5.70;;;2.70;;
70866;SDS011;58487;53.474;49.470;2023-10-31T12:40:45;8.60;;;3.30;;
70866;SDS011;58487;53.474;49.470;2023-10-31T12:43:12;8.15;;;3.20;;
70866;SDS011;58487;53.474;49.470;2023-10-31T12:45:38;8.20;;;3.27;;
70866;SDS011;58487;53.474;49.470;2023-10-31T12:48:06;7.63;;;3.40;;
70866;SDS011;58487;53.474;49.470;2023-10-31T12:50:34;6.72;;;3.10;;
70866;SDS011;58487;53.474;49.470;2023-10-31T12:53:08;6.68;;;3.30;;
70866;SDS011;58487;53.474;49.470;2023-10-31T12:55:38;6.75;;;3.15;;
70866;SDS011;58487;53.474;49.470;2023-10-31T12:58:05;6.37;;;3.17;;
70866;SDS011;58487;53.474;49.470;2023-10-31T13:00:32;7.10;;;3.38;;
70866;SDS011;58487;53.474;49.470;2023-10-31T13:03:05;7.55;;;3.30;;
70866;SDS011;58487;53.474;49.470;2023-10-31T13:05:37;7.53;;;3.28;;
70866;SDS011;58487;53.474;49.470;2023-10-31T13:08:10;8.25;;;3.60;;
70866;SDS011;58487;53.474;49.470;2023-10-31T13:10:39;6.60;;;2.93;;
70866;SDS011;58487;53.474;49.470;2023-10-31T13:13:05;6.75;;;3.50;;
70866;SDS011;58487;53.474;49.470;2023-10-31T13:15:31;7.35;;;3.55;;
70866;SDS011;58487;53.474;49.470;2023-10-31T13:17:58;8.20;;;3.65;;
70866;SDS011;58487;53.474;49.470;2023-10-31T13:20:24;8.27;;;3.37;;
70866;SDS011;58487;53.474;49.470;2023-10-31T13:22:50;7.25;;;3.35;;
70866;SDS011;58487;53.474;49.470;2023-10-31T13:25:16;7.53;;;3.30;;
70866;SDS011;58487;53.474;49.470;2023-10-31T13:27:43;6.18;;;3.17;;
70866;SDS011;58487;53.474;49.470;2023-10-31T13:30:12;8.50;;;3.50;;
70866;SDS011;58487;53.474;49.470;2023-10-31T13:32:44;9.30;;;3.00;;
70866;SDS011;58487;53.474;49.470;2023-10-31T13:35:10;7.85;;;2.95;;
70866;SDS011;58487;53.474;49.470;2023-10-31T13:37:39;6.35;;;2.58;;
70866;SDS011;58487;53.474;49.470;2023-10-31T13:40:05;6.35;;;3.30;;
70866;SDS011;58487;53.474;49.470;2023-10-31T13:42:34;6.75;;;3.08;;
70866;SDS011;58487;53.474;49.470;2023-10-31T13:45:00;8.43;;;3.10;;
70866;SDS011;58487;53.474;49.470;2023-10-31T13:47:26;8.05;;;3.50;;
70866;SDS011;58487;53.474;49.470;2023-10-31T13:49:54;6.32;;;3.08;;
70866;SDS011;58487;53.474;49.470;2023-10-31T13:52:20;9.93;;;3.55;;
70866;SDS011;58487;53.474;49.470;2023-10-31T13:54:47;7.33;;;2.80;;
70866;SDS011;58487;53.474;49.470;2023-10-31T13:57:13;6.20;;;2.78;;
70866;SDS011;58487;53.474;49.470;2023-10-31T13:59:39;7.65;;;3.33;;
70866;SDS011;58487;53.474;49.470;2023-10-31T14:02:05;6.07;;;2.70;;
70866;SDS011;58487;53.474;49.470;2023-10-31T14:04:31;9.37;;;2.90;;
70866;SDS011;58487;53.474;49.470;2023-10-31T14:06:59;11.43;;;3.38;;
70866;SDS011;58487;53.474;49.470;2023-10-31T14:09:25;7.63;;;3.20;;
70866;SDS011;58487;53.474;49.470;2023-10-31T14:11:51;6.43;;;3.00;;
70866;SDS011;58487;53.474;49.470;2023-10-31T14:14:16;9.57;;;3.07;;
70866;SDS011;58487;53.474;49.470;2023-10-31T14:16:47;8.05;;;3.25;;
70866;SDS011;58487;53.474;49.470;2023-10-31T14:19:14;5.75;;;3.00;;
70866;SDS011;58487;53.474;49.470;2023-10-31T14:21:43;8.68;;;2.85;;
70866;SDS011;58487;53.474;49.470;2023-10-31T14:24:09;7.10;;;3.20;;
70866;SDS011;58487;53.474;49.470;2023-10-31T14:26:35;6.07;;;3.07;;
70866;SDS011;58487;53.474;49.470;2023-10-31T14:29:02;8.88;;;3.20;;
70866;SDS011;58487;53.474;49.470;2023-10-31T14:31:28;7.47;;;3.33;;
70866;SDS011;58487;53.474;49.470;2023-10-31T14:33:55;7.00;;;3.03;;
70866;SDS011;58487;53.474;49.470;2023-10-31T14:36:23;5.78;;;2.83;;
70866;SDS011;58487;53.474;49.470;2023-10-31T14:38:49;5.37;;;2.83;;